Trine Charlotte — LMRY — position and weather

sailwx.info

Track history (hours):
 
Tides and Currents Weather Stations Pressure Air Temp Water Temp Dewpoint Dewpoint Depression Visibility Wind Speed Wind Dir Waves Ship Positions

Trine Charlotte

Last reported at 2014-Jul-23 05:28 UTC. Time now 2014-Jul-26 01:08 UTC.
Position N 68°12' E 014°50'.

Length 66 m; draft 4.6 m.

Type: . MMSI: 257233000.

Date/timePositionNaut miles runAvg speedWind from/ knotsBaromVisibWave heightAir tempDewpointWater temp
2014-Jul-23 05:28N 68°12' E 014°50'10 9.5
2014-Jul-23 04:28N 68°06' E 014°30'31 1.9
2014-Jul-22 11:33N 67°38' E 013°53'1010.0
2014-Jul-22 10:33N 67°38' E 014°19'10 9.9
2014-Jul-22 09:33N 67°37' E 014°45'10 0.6
2014-Jul-21 15:33N 67°28' E 014°34'9 9.0
2014-Jul-21 14:33N 67°20' E 014°21'9 8.7
2014-Jul-21 13:33N 67°13' E 014°09'9 8.7
2014-Jul-21 12:33N 67°06' E 013°57'9 8.8
2014-Jul-21 11:33N 67°00' E 013°39'27 8.4
2014-Jul-21 08:17N 66°36' E 013°04'6 8.2
2014-Jul-21 07:33N 66°31' E 012°58'9 9.1
2014-Jul-21 06:32N 66°21' E 012°57'10 9.0
2014-Jul-21 05:26N 66°12' E 012°52'8 8.3
2014-Jul-21 04:32N 66°05' E 012°42'73 8.2
2014-Jul-20 19:33N 64°58' E 011°33'9 8.8
2014-Jul-20 18:33N 64°52' E 011°17'9 8.5
2014-Jul-20 17:31N 64°46' E 011°02'  
2014-Jul-18 05:27N 60°24' E 005°14'0 0.1
2014-Jul-18 04:25N 60°24' E 005°14'4 0.1
2014-Jul-16 18:31N 60°28' E 005°15'4 0.3
2014-Jul-16 05:33N 60°24' E 005°13'  
Track history (hours):
 
Tides and Currents Weather Stations Pressure Air Temp Water Temp Dewpoint Dewpoint Depression Visibility Wind Speed Wind Dir Waves Ship Positions

Trine Charlotte

Last reported at 2014-Jul-23 05:28 UTC. Time now 2014-Jul-26 01:08 UTC.
Position N 68°12' E 014°50'.

Length 66 m; draft 4.6 m.

Type: . MMSI: 257233000.

Date/timePositionNaut miles runAvg speedWind from/ knotsBaromVisibWave heightAir tempDewpointWater temp
2014-Jul-23 05:28N 68°12' E 014°50'10 9.5
2014-Jul-23 04:28N 68°06' E 014°30'31 1.9
2014-Jul-22 11:33N 67°38' E 013°53'1010.0
2014-Jul-22 10:33N 67°38' E 014°19'10 9.9
2014-Jul-22 09:33N 67°37' E 014°45'10 0.6
2014-Jul-21 15:33N 67°28' E 014°34'9 9.0
2014-Jul-21 14:33N 67°20' E 014°21'9 8.7
2014-Jul-21 13:33N 67°13' E 014°09'9 8.7
2014-Jul-21 12:33N 67°06' E 013°57'9 8.8
2014-Jul-21 11:33N 67°00' E 013°39'27 8.4
2014-Jul-21 08:17N 66°36' E 013°04'6 8.2
2014-Jul-21 07:33N 66°31' E 012°58'9 9.1
2014-Jul-21 06:32N 66°21' E 012°57'10 9.0
2014-Jul-21 05:26N 66°12' E 012°52'8 8.3
2014-Jul-21 04:32N 66°05' E 012°42'73 8.2
2014-Jul-20 19:33N 64°58' E 011°33'9 8.8
2014-Jul-20 18:33N 64°52' E 011°17'9 8.5
2014-Jul-20 17:31N 64°46' E 011°02'  
2014-Jul-18 05:27N 60°24' E 005°14'0 0.1
2014-Jul-18 04:25N 60°24' E 005°14'4 0.1
2014-Jul-16 18:31N 60°28' E 005°15'4 0.3
2014-Jul-16 05:33N 60°24' E 005°13'  

Dump ship's entire track history